sensor_id;sensor_type;location;lat;lon;timestamp;pressure;altitude;pressure_sealevel;temperature;humidity
77086;BME280;66014;53.134;18.006;2024-01-25T00:01:25;100121.56;;;6.20;89.63
77086;BME280;66014;53.134;18.006;2024-01-25T00:03:52;100128.39;;;6.19;89.84
77086;BME280;66014;53.134;18.006;2024-01-25T00:06:18;100126.73;;;6.18;89.89
77086;BME280;66014;53.134;18.006;2024-01-25T00:08:46;100136.36;;;6.17;89.91
77086;BME280;66014;53.134;18.006;2024-01-25T00:11:13;100132.25;;;6.16;89.91
77086;BME280;66014;53.134;18.006;2024-01-25T00:13:40;100136.48;;;6.15;89.87
77086;BME280;66014;53.134;18.006;2024-01-25T00:16:06;100137.70;;;6.14;90.07
77086;BME280;66014;53.134;18.006;2024-01-25T00:18:33;100139.59;;;6.13;90.17
77086;BME280;66014;53.134;18.006;2024-01-25T00:21:00;100137.73;;;6.10;90.43
77086;BME280;66014;53.134;18.006;2024-01-25T00:23:26;100126.65;;;6.08;90.60
77086;BME280;66014;53.134;18.006;2024-01-25T00:25:54;100133.78;;;6.08;90.57
77086;BME280;66014;53.134;18.006;2024-01-25T00:28:25;100130.48;;;6.07;90.76
77086;BME280;66014;53.134;18.006;2024-01-25T00:30:55;100126.06;;;6.08;90.78
77086;BME280;66014;53.134;18.006;2024-01-25T00:33:21;100128.70;;;6.08;90.92
77086;BME280;66014;53.134;18.006;2024-01-25T00:35:48;100127.58;;;6.07;91.18
77086;BME280;66014;53.134;18.006;2024-01-25T00:38:15;100129.72;;;6.05;91.16
77086;BME280;66014;53.134;18.006;2024-01-25T00:40:43;100138.58;;;6.04;91.23
77086;BME280;66014;53.134;18.006;2024-01-25T00:43:13;100134.23;;;6.02;91.25
77086;BME280;66014;53.134;18.006;2024-01-25T00:45:41;100126.56;;;6.00;91.37
77086;BME280;66014;53.134;18.006;2024-01-25T00:48:08;100130.08;;;5.98;91.28
77086;BME280;66014;53.134;18.006;2024-01-25T00:50:35;100136.00;;;5.95;91.35
77086;BME280;66014;53.134;18.006;2024-01-25T00:53:02;100134.20;;;5.94;91.27
77086;BME280;66014;53.134;18.006;2024-01-25T00:55:30;100141.73;;;5.93;91.17
77086;BME280;66014;53.134;18.006;2024-01-25T00:57:57;100137.23;;;5.92;91.04
77086;BME280;66014;53.134;18.006;2024-01-25T01:00:37;100136.36;;;5.93;91.01
77086;BME280;66014;53.134;18.006;2024-01-25T01:03:06;100134.40;;;5.94;90.89
77086;BME280;66014;53.134;18.006;2024-01-25T01:05:36;100138.67;;;5.95;90.48
77086;BME280;66014;53.134;18.006;2024-01-25T01:08:04;100136.36;;;5.97;89.95
77086;BME280;66014;53.134;18.006;2024-01-25T01:10:32;100135.75;;;5.99;89.66
77086;BME280;66014;53.134;18.006;2024-01-25T01:12:59;100139.19;;;6.02;89.36
77086;BME280;66014;53.134;18.006;2024-01-25T01:15:28;100144.45;;;6.04;89.16
77086;BME280;66014;53.134;18.006;2024-01-25T01:17:54;100143.35;;;6.06;89.11
77086;BME280;66014;53.134;18.006;2024-01-25T01:20:21;100145.67;;;6.07;89.13
77086;BME280;66014;53.134;18.006;2024-01-25T01:22:48;100144.39;;;6.07;89.07
77086;BME280;66014;53.134;18.006;2024-01-25T01:25:18;100147.61;;;6.08;89.03
77086;BME280;66014;53.134;18.006;2024-01-25T01:27:44;100146.03;;;6.08;88.93
77086;BME280;66014;53.134;18.006;2024-01-25T01:30:11;100145.88;;;6.08;88.59
77086;BME280;66014;53.134;18.006;2024-01-25T01:32:38;100141.59;;;6.07;88.57
77086;BME280;66014;53.134;18.006;2024-01-25T01:35:05;100146.80;;;6.06;88.49
77086;BME280;66014;53.134;18.006;2024-01-25T01:37:32;100142.00;;;6.05;88.50
77086;BME280;66014;53.134;18.006;2024-01-25T01:39:58;100144.70;;;6.05;88.38
77086;BME280;66014;53.134;18.006;2024-01-25T01:42:27;100142.86;;;6.04;88.15
77086;BME280;66014;53.134;18.006;2024-01-25T01:44:54;100141.63;;;6.04;88.10
77086;BME280;66014;53.134;18.006;2024-01-25T01:47:20;100139.00;;;6.04;87.78
77086;BME280;66014;53.134;18.006;2024-01-25T01:49:50;100138.16;;;6.03;88.13
77086;BME280;66014;53.134;18.006;2024-01-25T01:52:17;100138.26;;;6.02;88.04
77086;BME280;66014;53.134;18.006;2024-01-25T01:54:45;100143.64;;;6.01;87.93
77086;BME280;66014;53.134;18.006;2024-01-25T01:57:12;100145.39;;;6.00;88.03
77086;BME280;66014;53.134;18.006;2024-01-25T01:59:39;100139.23;;;5.98;88.17
77086;BME280;66014;53.134;18.006;2024-01-25T02:02:06;100148.24;;;5.98;88.18
77086;BME280;66014;53.134;18.006;2024-01-25T02:04:33;100145.04;;;5.96;88.25
77086;BME280;66014;53.134;18.006;2024-01-25T02:07:00;100145.14;;;5.96;88.21
77086;BME280;66014;53.134;18.006;2024-01-25T02:09:26;100143.03;;;5.95;88.16
77086;BME280;66014;53.134;18.006;2024-01-25T02:12:01;100142.09;;;5.94;87.95
77086;BME280;66014;53.134;18.006;2024-01-25T02:14:28;100146.55;;;5.94;88.12
77086;BME280;66014;53.134;18.006;2024-01-25T02:16:56;100148.05;;;5.91;87.91
77086;BME280;66014;53.134;18.006;2024-01-25T02:19:22;100145.61;;;5.89;87.76
77086;BME280;66014;53.134;18.006;2024-01-25T02:21:52;100147.42;;;5.89;87.82
77086;BME280;66014;53.134;18.006;2024-01-25T02:24:30;100154.20;;;5.88;87.61
77086;BME280;66014;53.134;18.006;2024-01-25T02:26:56;100153.89;;;5.88;87.50
77086;BME280;66014;53.134;18.006;2024-01-25T02:29:23;100149.63;;;5.88;87.42
77086;BME280;66014;53.134;18.006;2024-01-25T02:31:49;100149.34;;;5.87;87.56
77086;BME280;66014;53.134;18.006;2024-01-25T02:34:16;100146.20;;;5.87;87.38
77086;BME280;66014;53.134;18.006;2024-01-25T02:36:49;100152.20;;;5.87;87.33
77086;BME280;66014;53.134;18.006;2024-01-25T02:39:16;100154.17;;;5.87;87.29
77086;BME280;66014;53.134;18.006;2024-01-25T02:41:42;100147.19;;;5.86;87.29
77086;BME280;66014;53.134;18.006;2024-01-25T02:44:09;100149.49;;;5.86;87.26
77086;BME280;66014;53.134;18.006;2024-01-25T02:46:35;100151.23;;;5.86;87.02
77086;BME280;66014;53.134;18.006;2024-01-25T02:49:02;100152.50;;;5.86;87.05
77086;BME280;66014;53.134;18.006;2024-01-25T02:51:29;100152.33;;;5.86;87.27
77086;BME280;66014;53.134;18.006;2024-01-25T02:53:55;100154.12;;;5.86;87.49
77086;BME280;66014;53.134;18.006;2024-01-25T02:56:22;100152.48;;;5.84;87.48
77086;BME280;66014;53.134;18.006;2024-01-25T02:58:48;100151.89;;;5.83;87.58
77086;BME280;66014;53.134;18.006;2024-01-25T03:01:15;100146.05;;;5.82;87.94
77086;BME280;66014;53.134;18.006;2024-01-25T03:03:41;100144.09;;;5.81;88.19
77086;BME280;66014;53.134;18.006;2024-01-25T03:06:08;100147.35;;;5.78;88.56
77086;BME280;66014;53.134;18.006;2024-01-25T03:08:35;100158.27;;;5.74;88.83
77086;BME280;66014;53.134;18.006;2024-01-25T03:11:02;100156.70;;;5.71;89.24
77086;BME280;66014;53.134;18.006;2024-01-25T03:13:31;100155.09;;;5.68;89.42
77086;BME280;66014;53.134;18.006;2024-01-25T03:15:58;100154.51;;;5.65;89.41
77086;BME280;66014;53.134;18.006;2024-01-25T03:18:26;100163.19;;;5.63;89.54
77086;BME280;66014;53.134;18.006;2024-01-25T03:20:53;100168.16;;;5.61;89.54
77086;BME280;66014;53.134;18.006;2024-01-25T03:23:20;100170.33;;;5.60;89.67
77086;BME280;66014;53.134;18.006;2024-01-25T03:25:48;100161.32;;;5.59;89.77
77086;BME280;66014;53.134;18.006;2024-01-25T03:28:17;100172.14;;;5.58;90.04
77086;BME280;66014;53.134;18.006;2024-01-25T03:30:45;100182.80;;;5.57;90.16
77086;BME280;66014;53.134;18.006;2024-01-25T03:33:11;100185.00;;;5.56;90.33
77086;BME280;66014;53.134;18.006;2024-01-25T03:35:38;100186.67;;;5.55;90.49
77086;BME280;66014;53.134;18.006;2024-01-25T03:38:06;100188.78;;;5.55;90.52
77086;BME280;66014;53.134;18.006;2024-01-25T03:40:33;100191.40;;;5.55;90.52
77086;BME280;66014;53.134;18.006;2024-01-25T03:43:00;100186.79;;;5.56;90.73
77086;BME280;66014;53.134;18.006;2024-01-25T03:45:27;100195.29;;;5.55;90.61
77086;BME280;66014;53.134;18.006;2024-01-25T03:47:54;100198.81;;;5.55;90.71
77086;BME280;66014;53.134;18.006;2024-01-25T03:50:20;100194.60;;;5.55;90.65
77086;BME280;66014;53.134;18.006;2024-01-25T03:52:47;100195.15;;;5.55;90.85
77086;BME280;66014;53.134;18.006;2024-01-25T03:55:14;100199.05;;;5.55;90.76
77086;BME280;66014;53.134;18.006;2024-01-25T03:57:44;100202.02;;;5.55;90.77
77086;BME280;66014;53.134;18.006;2024-01-25T04:00:11;100194.35;;;5.54;90.88
77086;BME280;66014;53.134;18.006;2024-01-25T04:02:39;100194.77;;;5.54;90.78
77086;BME280;66014;53.134;18.006;2024-01-25T04:05:06;100202.15;;;5.54;90.93
77086;BME280;66014;53.134;18.006;2024-01-25T04:07:33;100199.55;;;5.53;90.94
77086;BME280;66014;53.134;18.006;2024-01-25T04:09:59;100203.08;;;5.51;91.06
77086;BME280;66014;53.134;18.006;2024-01-25T04:12:26;100200.90;;;5.50;91.01
77086;BME280;66014;53.134;18.006;2024-01-25T04:14:53;100200.36;;;5.50;91.05
77086;BME280;66014;53.134;18.006;2024-01-25T04:17:22;100201.57;;;5.49;91.06
77086;BME280;66014;53.134;18.006;2024-01-25T04:19:49;100205.31;;;5.49;91.23
77086;BME280;66014;53.134;18.006;2024-01-25T04:22:15;100204.52;;;5.48;91.18
77086;BME280;66014;53.134;18.006;2024-01-25T04:24:42;100208.54;;;5.48;91.28
77086;BME280;66014;53.134;18.006;2024-01-25T04:27:12;100207.61;;;5.47;91.53
77086;BME280;66014;53.134;18.006;2024-01-25T04:29:40;100217.23;;;5.46;91.61
77086;BME280;66014;53.134;18.006;2024-01-25T04:32:12;100224.34;;;5.45;91.60
77086;BME280;66014;53.134;18.006;2024-01-25T04:34:41;100227.82;;;5.44;91.88
77086;BME280;66014;53.134;18.006;2024-01-25T04:37:10;100227.08;;;5.42;92.08
77086;BME280;66014;53.134;18.006;2024-01-25T04:39:38;100234.04;;;5.41;91.99
77086;BME280;66014;53.134;18.006;2024-01-25T04:42:12;100232.41;;;5.40;92.20
77086;BME280;66014;53.134;18.006;2024-01-25T04:44:40;100236.85;;;5.40;92.20
77086;BME280;66014;53.134;18.006;2024-01-25T04:47:07;100242.21;;;5.39;92.28
77086;BME280;66014;53.134;18.006;2024-01-25T04:49:33;100247.89;;;5.38;92.37
77086;BME280;66014;53.134;18.006;2024-01-25T04:52:00;100245.02;;;5.37;92.57
77086;BME280;66014;53.134;18.006;2024-01-25T04:54:27;100253.47;;;5.37;92.72
77086;BME280;66014;53.134;18.006;2024-01-25T04:56:53;100249.66;;;5.37;92.85
77086;BME280;66014;53.134;18.006;2024-01-25T04:59:21;100251.20;;;5.35;93.07
77086;BME280;66014;53.134;18.006;2024-01-25T05:01:48;100241.63;;;5.34;93.41
77086;BME280;66014;53.134;18.006;2024-01-25T05:04:16;100239.97;;;5.33;93.59
77086;BME280;66014;53.134;18.006;2024-01-25T05:06:44;100240.88;;;5.31;93.68
77086;BME280;66014;53.134;18.006;2024-01-25T05:09:11;100246.66;;;5.31;93.73
77086;BME280;66014;53.134;18.006;2024-01-25T05:11:41;100249.95;;;5.32;93.60
77086;BME280;66014;53.134;18.006;2024-01-25T05:14:08;100254.45;;;5.33;93.74
77086;BME280;66014;53.134;18.006;2024-01-25T05:16:35;100261.84;;;5.33;93.75
77086;BME280;66014;53.134;18.006;2024-01-25T05:19:05;100260.92;;;5.33;93.67
77086;BME280;66014;53.134;18.006;2024-01-25T05:21:32;100258.08;;;5.33;93.89
77086;BME280;66014;53.134;18.006;2024-01-25T05:23:59;100261.52;;;5.34;93.97
77086;BME280;66014;53.134;18.006;2024-01-25T05:26:40;100256.93;;;5.34;93.89
77086;BME280;66014;53.134;18.006;2024-01-25T05:29:35;100256.48;;;5.35;93.93
77086;BME280;66014;53.134;18.006;2024-01-25T05:32:02;100260.07;;;5.34;94.00
77086;BME280;66014;53.134;18.006;2024-01-25T05:34:35;100264.92;;;5.35;94.10
77086;BME280;66014;53.134;18.006;2024-01-25T05:37:06;100269.94;;;5.36;94.05
77086;BME280;66014;53.134;18.006;2024-01-25T05:39:35;100267.12;;;5.36;94.17
77086;BME280;66014;53.134;18.006;2024-01-25T05:42:03;100272.48;;;5.35;94.33
77086;BME280;66014;53.134;18.006;2024-01-25T05:48:08;100278.44;;;5.37;94.30
77086;BME280;66014;53.134;18.006;2024-01-25T05:54:28;100279.61;;;5.40;94.13
77086;BME280;66014;53.134;18.006;2024-01-25T06:01:14;100279.41;;;5.45;93.79
77086;BME280;66014;53.134;18.006;2024-01-25T06:03:47;100281.74;;;5.46;93.68
77086;BME280;66014;53.134;18.006;2024-01-25T06:06:14;100284.36;;;5.48;93.50
77086;BME280;66014;53.134;18.006;2024-01-25T06:08:50;100292.75;;;5.50;93.30
77086;BME280;66014;53.134;18.006;2024-01-25T06:11:22;100295.75;;;5.52;93.21
77086;BME280;66014;53.134;18.006;2024-01-25T06:13:48;100301.07;;;5.55;93.02
77086;BME280;66014;53.134;18.006;2024-01-25T06:20:10;100315.14;;;5.60;92.57
77086;BME280;66014;53.134;18.006;2024-01-25T06:22:43;100321.85;;;5.62;92.54
77086;BME280;66014;53.134;18.006;2024-01-25T06:25:10;100325.02;;;5.64;92.44
77086;BME280;66014;53.134;18.006;2024-01-25T06:27:36;100332.95;;;5.65;92.26
77086;BME280;66014;53.134;18.006;2024-01-25T06:30:09;100327.13;;;5.65;92.25
77086;BME280;66014;53.134;18.006;2024-01-25T06:32:39;100332.73;;;5.67;92.17
77086;BME280;66014;53.134;18.006;2024-01-25T06:42:59;100325.66;;;5.71;91.32
77086;BME280;66014;53.134;18.006;2024-01-25T06:52:54;100326.10;;;5.74;91.13
77086;BME280;66014;53.134;18.006;2024-01-25T06:55:21;100330.63;;;5.74;90.99
77086;BME280;66014;53.134;18.006;2024-01-25T06:57:48;100343.99;;;5.74;90.88
77086;BME280;66014;53.134;18.006;2024-01-25T07:00:16;100350.30;;;5.74;90.80
77086;BME280;66014;53.134;18.006;2024-01-25T07:02:43;100356.46;;;5.76;90.62
77086;BME280;66014;53.134;18.006;2024-01-25T07:05:14;100370.54;;;5.78;90.65
77086;BME280;66014;53.134;18.006;2024-01-25T07:07:41;100373.73;;;5.80;90.62
77086;BME280;66014;53.134;18.006;2024-01-25T07:10:08;100381.27;;;5.80;90.67
77086;BME280;66014;53.134;18.006;2024-01-25T07:12:35;100382.96;;;5.81;90.65
77086;BME280;66014;53.134;18.006;2024-01-25T07:15:02;100392.83;;;5.81;90.70
77086;BME280;66014;53.134;18.006;2024-01-25T07:17:29;100400.02;;;5.81;90.60
77086;BME280;66014;53.134;18.006;2024-01-25T07:19:55;100404.48;;;5.80;90.55
77086;BME280;66014;53.134;18.006;2024-01-25T07:22:22;100409.27;;;5.80;90.60
77086;BME280;66014;53.134;18.006;2024-01-25T07:24:48;100413.97;;;5.81;90.71
77086;BME280;66014;53.134;18.006;2024-01-25T07:27:15;100414.36;;;5.80;90.71
77086;BME280;66014;53.134;18.006;2024-01-25T07:29:44;100418.05;;;5.80;90.89
77086;BME280;66014;53.134;18.006;2024-01-25T07:32:12;100422.67;;;5.80;90.83
77086;BME280;66014;53.134;18.006;2024-01-25T07:34:38;100432.00;;;5.80;90.74
77086;BME280;66014;53.134;18.006;2024-01-25T07:37:05;100437.13;;;5.80;90.74
77086;BME280;66014;53.134;18.006;2024-01-25T07:39:31;100440.63;;;5.80;90.68
77086;BME280;66014;53.134;18.006;2024-01-25T07:41:58;100448.38;;;5.80;90.65
77086;BME280;66014;53.134;18.006;2024-01-25T07:44:27;100457.31;;;5.81;90.68
77086;BME280;66014;53.134;18.006;2024-01-25T07:46:54;100464.52;;;5.81;90.62
77086;BME280;66014;53.134;18.006;2024-01-25T07:49:21;100470.23;;;5.82;90.58
77086;BME280;66014;53.134;18.006;2024-01-25T07:51:48;100479.09;;;5.83;90.59
77086;BME280;66014;53.134;18.006;2024-01-25T07:54:15;100477.43;;;5.83;90.63
77086;BME280;66014;53.134;18.006;2024-01-25T07:56:42;100484.16;;;5.85;90.57
77086;BME280;66014;53.134;18.006;2024-01-25T07:59:08;100483.29;;;5.86;90.42
77086;BME280;66014;53.134;18.006;2024-01-25T08:01:35;100487.65;;;5.89;90.22
77086;BME280;66014;53.134;18.006;2024-01-25T08:04:02;100491.29;;;5.89;89.82
77086;BME280;66014;53.134;18.006;2024-01-25T08:06:32;100493.23;;;5.91;89.86
77086;BME280;66014;53.134;18.006;2024-01-25T08:09:02;100507.27;;;5.93;89.67
77086;BME280;66014;53.134;18.006;2024-01-25T08:11:29;100500.42;;;5.95;89.61
77086;BME280;66014;53.134;18.006;2024-01-25T08:13:56;100508.36;;;5.96;89.41
77086;BME280;66014;53.134;18.006;2024-01-25T08:16:23;100510.77;;;5.99;89.10
77086;BME280;66014;53.134;18.006;2024-01-25T08:18:50;100519.41;;;6.02;88.87
77086;BME280;66014;53.134;18.006;2024-01-25T08:21:16;100519.79;;;6.03;88.47
77086;BME280;66014;53.134;18.006;2024-01-25T08:23:43;100525.98;;;6.06;88.39
77086;BME280;66014;53.134;18.006;2024-01-25T08:26:12;100524.80;;;6.10;88.29
77086;BME280;66014;53.134;18.006;2024-01-25T08:28:42;100532.09;;;6.12;88.17
77086;BME280;66014;53.134;18.006;2024-01-25T08:31:13;100535.05;;;6.14;88.26
77086;BME280;66014;53.134;18.006;2024-01-25T08:33:41;100542.77;;;6.17;88.20
77086;BME280;66014;53.134;18.006;2024-01-25T08:36:18;100549.61;;;6.17;87.65
77086;BME280;66014;53.134;18.006;2024-01-25T08:39:06;100553.38;;;6.20;87.22
77086;BME280;66014;53.134;18.006;2024-01-25T08:41:41;100559.98;;;6.21;87.22
77086;BME280;66014;53.134;18.006;2024-01-25T08:44:38;100564.58;;;6.22;86.95
77086;BME280;66014;53.134;18.006;2024-01-25T08:47:08;100566.88;;;6.24;86.70
77086;BME280;66014;53.134;18.006;2024-01-25T08:49:45;100571.75;;;6.25;86.51
77086;BME280;66014;53.134;18.006;2024-01-25T08:52:49;100575.30;;;6.26;86.75
77086;BME280;66014;53.134;18.006;2024-01-25T08:55:17;100592.08;;;6.27;86.77
77086;BME280;66014;53.134;18.006;2024-01-25T08:58:06;100594.66;;;6.28;86.58
77086;BME280;66014;53.134;18.006;2024-01-25T09:00:36;100597.79;;;6.30;86.48
77086;BME280;66014;53.134;18.006;2024-01-25T09:03:04;100602.92;;;6.34;86.64
77086;BME280;66014;53.134;18.006;2024-01-25T09:05:42;100606.59;;;6.37;86.62
77086;BME280;66014;53.134;18.006;2024-01-25T09:08:20;100615.96;;;6.39;86.44
77086;BME280;66014;53.134;18.006;2024-01-25T09:11:08;100618.86;;;6.40;86.33
77086;BME280;66014;53.134;18.006;2024-01-25T09:13:36;100625.48;;;6.42;86.53
77086;BME280;66014;53.134;18.006;2024-01-25T09:16:03;100629.02;;;6.44;86.10
77086;BME280;66014;53.134;18.006;2024-01-25T09:18:29;100625.13;;;6.44;85.27
77086;BME280;66014;53.134;18.006;2024-01-25T09:20:56;100633.69;;;6.45;85.46
77086;BME280;66014;53.134;18.006;2024-01-25T09:23:22;100638.79;;;6.45;85.53
77086;BME280;66014;53.134;18.006;2024-01-25T09:25:49;100641.63;;;6.45;85.28
77086;BME280;66014;53.134;18.006;2024-01-25T09:28:15;100648.00;;;6.44;85.11
77086;BME280;66014;53.134;18.006;2024-01-25T09:30:42;100648.70;;;6.44;85.47
77086;BME280;66014;53.134;18.006;2024-01-25T09:33:09;100653.86;;;6.46;85.27
77086;BME280;66014;53.134;18.006;2024-01-25T09:35:38;100659.59;;;6.47;85.20
77086;BME280;66014;53.134;18.006;2024-01-25T09:38:06;100656.34;;;6.46;84.58
77086;BME280;66014;53.134;18.006;2024-01-25T09:40:33;100666.31;;;6.45;84.92
77086;BME280;66014;53.134;18.006;2024-01-25T09:43:02;100667.73;;;6.46;84.90
77086;BME280;66014;53.134;18.006;2024-01-25T09:45:31;100668.48;;;6.47;84.81
77086;BME280;66014;53.134;18.006;2024-01-25T09:47:57;100669.71;;;6.51;84.40
77086;BME280;66014;53.134;18.006;2024-01-25T09:50:24;100672.67;;;6.57;84.14
77086;BME280;66014;53.134;18.006;2024-01-25T09:52:54;100675.42;;;6.61;84.34
77086;BME280;66014;53.134;18.006;2024-01-25T09:55:25;100681.52;;;6.62;84.41
77086;BME280;66014;53.134;18.006;2024-01-25T09:57:56;100683.19;;;6.63;84.24
77086;BME280;66014;53.134;18.006;2024-01-25T10:00:25;100688.59;;;6.67;84.25
77086;BME280;66014;53.134;18.006;2024-01-25T10:02:52;100692.86;;;6.68;84.10
77086;BME280;66014;53.134;18.006;2024-01-25T10:05:19;100700.94;;;6.69;83.88
77086;BME280;66014;53.134;18.006;2024-01-25T10:07:46;100700.81;;;6.72;83.92
77086;BME280;66014;53.134;18.006;2024-01-25T10:10:13;100708.80;;;6.76;84.13
77086;BME280;66014;53.134;18.006;2024-01-25T10:12:42;100709.92;;;6.79;83.79
77086;BME280;66014;53.134;18.006;2024-01-25T10:15:10;100714.52;;;6.77;83.56
77086;BME280;66014;53.134;18.006;2024-01-25T10:17:38;100714.25;;;6.76;83.99
77086;BME280;66014;53.134;18.006;2024-01-25T10:20:05;100715.36;;;6.78;84.19
77086;BME280;66014;53.134;18.006;2024-01-25T10:22:37;100717.44;;;6.78;83.76
77086;BME280;66014;53.134;18.006;2024-01-25T10:25:12;100723.82;;;6.80;83.89
77086;BME280;66014;53.134;18.006;2024-01-25T10:27:39;100725.85;;;6.78;83.57
77086;BME280;66014;53.134;18.006;2024-01-25T10:30:11;100734.50;;;6.77;83.58
77086;BME280;66014;53.134;18.006;2024-01-25T10:32:40;100739.63;;;6.73;83.81
77086;BME280;66014;53.134;18.006;2024-01-25T10:35:08;100740.04;;;6.69;84.24
77086;BME280;66014;53.134;18.006;2024-01-25T10:37:36;100742.04;;;6.67;84.63
77086;BME280;66014;53.134;18.006;2024-01-25T10:40:05;100741.12;;;6.67;84.73
77086;BME280;66014;53.134;18.006;2024-01-25T10:42:32;100746.36;;;6.67;84.06
77086;BME280;66014;53.134;18.006;2024-01-25T10:44:58;100749.89;;;6.67;84.01
77086;BME280;66014;53.134;18.006;2024-01-25T10:47:25;100757.29;;;6.65;84.00
77086;BME280;66014;53.134;18.006;2024-01-25T10:49:54;100753.89;;;6.64;83.63
77086;BME280;66014;53.134;18.006;2024-01-25T10:52:21;100757.59;;;6.65;83.56
77086;BME280;66014;53.134;18.006;2024-01-25T10:54:47;100761.03;;;6.65;84.03
77086;BME280;66014;53.134;18.006;2024-01-25T10:57:14;100759.80;;;6.69;83.88
77086;BME280;66014;53.134;18.006;2024-01-25T10:59:40;100764.79;;;6.73;83.82
77086;BME280;66014;53.134;18.006;2024-01-25T11:02:07;100755.04;;;6.78;83.30
77086;BME280;66014;53.134;18.006;2024-01-25T11:04:35;100760.33;;;6.81;82.93
77086;BME280;66014;53.134;18.006;2024-01-25T11:07:08;100762.61;;;6.87;83.12
77086;BME280;66014;53.134;18.006;2024-01-25T11:09:38;100766.01;;;6.91;82.99
77086;BME280;66014;53.134;18.006;2024-01-25T11:12:31;100761.14;;;6.92;82.25
77086;BME280;66014;53.134;18.006;2024-01-25T11:15:09;100770.05;;;6.93;82.37
77086;BME280;66014;53.134;18.006;2024-01-25T11:18:02;100773.84;;;6.96;82.51
77086;BME280;66014;53.134;18.006;2024-01-25T11:20:31;100781.33;;;6.97;82.54
77086;BME280;66014;53.134;18.006;2024-01-25T11:23:01;100789.02;;;6.98;82.70
77086;BME280;66014;53.134;18.006;2024-01-25T11:25:34;100793.95;;;6.96;82.60
77086;BME280;66014;53.134;18.006;2024-01-25T11:28:02;100804.05;;;6.94;82.38
77086;BME280;66014;53.134;18.006;2024-01-25T11:41:23;100821.18;;;6.77;81.88
77086;BME280;66014;53.134;18.006;2024-01-25T11:43:53;100832.21;;;6.75;82.43
77086;BME280;66014;53.134;18.006;2024-01-25T11:46:21;100833.06;;;6.73;82.55
77086;BME280;66014;53.134;18.006;2024-01-25T11:48:53;100841.29;;;6.72;82.71
77086;BME280;66014;53.134;18.006;2024-01-25T11:51:19;100841.83;;;6.72;82.79
77086;BME280;66014;53.134;18.006;2024-01-25T11:53:46;100849.00;;;6.73;82.99
77086;BME280;66014;53.134;18.006;2024-01-25T11:56:17;100847.08;;;6.73;82.70
77086;BME280;66014;53.134;18.006;2024-01-25T11:58:54;100857.66;;;6.71;82.72
77086;BME280;66014;53.134;18.006;2024-01-25T12:01:27;100862.23;;;6.69;82.72
77086;BME280;66014;53.134;18.006;2024-01-25T12:03:55;100868.10;;;6.67;82.92
77086;BME280;66014;53.134;18.006;2024-01-25T12:06:22;100868.08;;;6.65;83.24
77086;BME280;66014;53.134;18.006;2024-01-25T12:08:50;100874.44;;;6.63;83.62
77086;BME280;66014;53.134;18.006;2024-01-25T12:11:20;100882.30;;;6.62;83.99
77086;BME280;66014;53.134;18.006;2024-01-25T12:13:52;100887.64;;;6.60;83.94
77086;BME280;66014;53.134;18.006;2024-01-25T12:16:26;100897.98;;;6.59;84.32
77086;BME280;66014;53.134;18.006;2024-01-25T12:19:06;100903.67;;;6.54;84.77
77086;BME280;66014;53.134;18.006;2024-01-25T12:21:48;100910.05;;;6.52;85.24
77086;BME280;66014;53.134;18.006;2024-01-25T12:24:19;100907.36;;;6.51;85.62
77086;BME280;66014;53.134;18.006;2024-01-25T12:31:07;100918.86;;;6.45;85.69
77086;BME280;66014;53.134;18.006;2024-01-25T12:47:19;100932.98;;;6.83;85.45
77086;BME280;66014;53.134;18.006;2024-01-25T12:49:45;100943.01;;;6.83;85.65
77086;BME280;66014;53.134;18.006;2024-01-25T12:52:14;100951.03;;;6.81;85.88
77086;BME280;66014;53.134;18.006;2024-01-25T12:54:41;100951.77;;;6.79;85.63
77086;BME280;66014;53.134;18.006;2024-01-25T12:57:07;100947.95;;;6.74;85.29
77086;BME280;66014;53.134;18.006;2024-01-25T12:59:34;100951.08;;;6.73;85.27
77086;BME280;66014;53.134;18.006;2024-01-25T13:02:00;100955.13;;;6.69;85.29
77086;BME280;66014;53.134;18.006;2024-01-25T13:04:26;100958.30;;;6.66;85.46
77086;BME280;66014;53.134;18.006;2024-01-25T13:06:54;100959.73;;;6.62;85.30
77086;BME280;66014;53.134;18.006;2024-01-25T13:09:22;100962.31;;;6.59;85.38
77086;BME280;66014;53.134;18.006;2024-01-25T13:11:51;100964.58;;;6.57;85.30
77086;BME280;66014;53.134;18.006;2024-01-25T13:14:18;100964.60;;;6.54;85.18
77086;BME280;66014;53.134;18.006;2024-01-25T13:16:45;100970.48;;;6.49;85.23
77086;BME280;66014;53.134;18.006;2024-01-25T13:19:11;100973.88;;;6.49;85.50
77086;BME280;66014;53.134;18.006;2024-01-25T13:21:38;100976.08;;;6.48;85.45
77086;BME280;66014;53.134;18.006;2024-01-25T13:24:05;100977.99;;;6.46;85.31
77086;BME280;66014;53.134;18.006;2024-01-25T13:26:31;100981.65;;;6.45;85.13
77086;BME280;66014;53.134;18.006;2024-01-25T13:28:57;100982.46;;;6.43;85.14
77086;BME280;66014;53.134;18.006;2024-01-25T13:31:24;100983.77;;;6.43;85.20
77086;BME280;66014;53.134;18.006;2024-01-25T13:33:51;100987.03;;;6.40;84.98
77086;BME280;66014;53.134;18.006;2024-01-25T13:36:18;100993.93;;;6.40;85.15
77086;BME280;66014;53.134;18.006;2024-01-25T13:38:44;100996.55;;;6.36;84.85
77086;BME280;66014;53.134;18.006;2024-01-25T13:41:10;101001.65;;;6.33;84.87
77086;BME280;66014;53.134;18.006;2024-01-25T13:43:38;101008.17;;;6.31;84.92
77086;BME280;66014;53.134;18.006;2024-01-25T13:46:04;101012.02;;;6.27;84.60
77086;BME280;66014;53.134;18.006;2024-01-25T13:48:35;101022.44;;;6.25;84.85
77086;BME280;66014;53.134;18.006;2024-01-25T13:51:02;101027.23;;;6.23;84.73
77086;BME280;66014;53.134;18.006;2024-01-25T13:53:29;101038.41;;;6.22;85.05
77086;BME280;66014;53.134;18.006;2024-01-25T13:55:55;101042.36;;;6.21;85.27
77086;BME280;66014;53.134;18.006;2024-01-25T13:58:21;101047.77;;;6.20;85.39